Friday, August 26, 2016
13:41 UTC
  |  Log In   |  Register Free
Airport Search:

Raleigh-Durham International Airport
(KRDU)

FAA data valid effective Jul 21 2016 - Sep 15 2016 (unless otherwise noted).

 
 
 
 
 
 
 
 
 
 
 
 
 
 
Current Aviation Weather for KRDU

Weather Summary


The most recent METAR observation for RDU was updated at: 12:51 UTC
METAR for RDU is not available. Closest METAR is for
METAR

METAR KRDU 261251Z 00000KT 10SM FEW250 27/22 A3010 RMK AO2 SLP187 T02670217

METAR KRDU 261151Z 23005KT 10SM FEW250 24/22 A3010 RMK AO2 SLP187 T02440217 10250 20222 53003

METAR KRDU 261051Z 24004KT 10SM FEW050 SCT250 23/21 A3010 RMK AO2 SLP186 T02280211

METAR KBUY 261254Z 29003KT 10SM CLR 27/23 A3011 RMK AO2 SLP188 T02720228

METAR KHNZ 261320Z 30003KT 10SM CLR 26/22 A3010 RMK AO2 T02620216

METAR KHRJ 261320Z 20004KT 10SM CLR 26/23 A3009 RMK AO2 T02600234

TAF for RDU is not available.
TAF

KRDU - TAF KRDU 261120Z 2612/2712 VRB04KT P6SM SCT040 SCT250 =

GlobalAir.com is loading additional information.
 Current Weather at RDU
76.0 F° (24.4 C°)

Southwest winds at 5.8 mph
Pressure:
30.10 in
Humidity:
85%
Wind:
Southwest at 5.8 mph
Dew Point:
71.1 F° (21.7 C°)
Visibility:
10.00 mi
RDU NOAA Radar




Find All Airport Services Find A Hotel Find A Rental Car Find A Golf Course Find A Restaurant $100 Hamburger



Airport Weather Forecast for KRDU

Translated METAR for KRDU (1151 UTC)
METAR:
KRDU 261151Z Raleigh/Durham International, Raleigh/Durham, NC (KRDU). Aug 26, 1151Z. Wind from 230° at 5 knots, 10 statute miles visibility, Few clouds at 25,000 feet, Temperature 24°C, Dewpoint 22°C, Altimeter is 30.10. Remarks: automated station with precipitation discriminator sea level pressure 1018.7 hectopascals hourly temp 24.4°C dewpoint 21.7°C 6-hour max temp 25.0°C 6-hour min temp 22.2°C 3-hour atmospheric pressure decreasing or steady, then increasing; or increasing then increasing more rapidly by 0.3 hectopascals
Conditions at:
KRDU (Raleigh-Durham Intl, NC) observed 1151 UTC 26 August 2016
Temperature:
76.0 F° (24.4 C°)
Dewpoint:
not reported - refer to area weather report
Pressure:
30.10 Hg
Winds:
not reported
Visibility:
10.00
Ceiling:
at least 12,000 feet AGL
Clouds:
not reported - refer to area weather report
Remarks:

Translated TAF for TAF for RDU is not available. Refer to local area forecast.
FBO's on the Field
FBO Company Facility Photos Services Transportation Aviation Fuel Prices: Prices include tax
Catering Weather Repair Courtesy Rental Type 100LL JetA JetA+ MOGAS 8087
 
Signature Flight Support - RDU

Currently rated 3.8 by 3 people
FS:Shell
Last Updated: Aug-23
Login to update fuel prices
SS:
Contact Signature Flight Support - RDUMore FBO Information
 
TAC Air - RDU

Currently rated 5 by 3 people
FS:Avfuel
Last Updated: Jul-22
Login to update fuel prices
SS:
Contact TAC Air - RDUMore FBO Information
 
Add another FBO Facility Photos Catering Weather Repair Courtesy Rental Type 100LL JetA JetA+ MOGAS 8087
Services Transportation Aviation Fuel Prices: Prices include tax


model-print
model-print
model-print
model-print